createdAt,value
2022-08-17T00:02:25.994Z,-11421.19
2022-08-17T00:05:37.339Z,-11417.78
2022-08-17T00:08:46.383Z,-11405.25
2022-08-17T00:12:41.499Z,-11404.84
2022-08-17T00:15:20.542Z,-11416.09
2022-08-17T00:19:01.048Z,-11416.94
2022-08-17T00:22:33.753Z,-11404.84
2022-08-17T00:25:26.973Z,-11386.50
2022-08-17T00:28:33.560Z,-11375.25
2022-08-17T00:31:40.330Z,-11375.25
2022-08-17T00:34:48.080Z,-11375.25
2022-08-17T00:37:55.091Z,-11367.91
2022-08-17T00:41:04.178Z,-11363.53
2022-08-17T00:44:12.463Z,-11368.75
2022-08-17T00:47:18.901Z,-11381.16
2022-08-17T00:50:26.382Z,-11386.50
2022-08-17T00:53:35.125Z,-11389.03
2022-08-17T00:56:44.478Z,-11383.00
2022-08-17T01:00:02.014Z,-11386.22
2022-08-17T01:03:14.966Z,-11390.31
2022-08-17T01:06:24.316Z,-11377.78
2022-08-17T01:09:31.604Z,-11388.47
2022-08-17T01:12:38.309Z,-11392.72
2022-08-17T01:15:49.816Z,-11366.22
2022-08-17T01:19:03.748Z,-11368.19
2022-08-17T01:22:20.147Z,-11379.75
2022-08-17T01:25:26.871Z,-11376.94
2022-08-17T01:28:53.740Z,-11367.06
2022-08-17T01:32:04.931Z,-11367.63
2022-08-17T01:35:11.292Z,-11358.34
2022-08-17T01:38:19.845Z,-11356.06
2022-08-17T01:41:33.745Z,-11346.66
2022-08-17T01:44:40.279Z,-11350.03
2022-08-17T01:47:46.313Z,-11348.47
2022-08-17T01:50:53.555Z,-11354.53
2022-08-17T01:54:05.482Z,-11365.38
2022-08-17T01:57:11.989Z,-11375.25
2022-08-17T02:00:18.472Z,-11367.78
2022-08-17T02:03:26.318Z,-11368.19
2022-08-17T02:06:52.783Z,-11375.66
2022-08-17T02:10:02.064Z,-11360.16
2022-08-17T02:13:08.760Z,-11348.47
2022-08-17T02:16:15.301Z,-11333.28
2022-08-17T02:19:22.443Z,-11342.13
2022-08-17T02:22:47.481Z,-11337.78
2022-08-17T02:25:59.114Z,-11327.63
2022-08-17T02:29:05.592Z,-11330.16
2022-08-17T02:32:28.163Z,-11334.38
2022-08-17T02:35:34.895Z,-11330.44
2022-08-17T02:38:42.496Z,-11342.84
2022-08-17T02:41:50.550Z,-11354.09
2022-08-17T02:44:56.954Z,-11343.97
2022-08-17T02:48:03.895Z,-11341.28
2022-08-17T02:51:10.678Z,-11350.31
2022-08-17T02:54:40.354Z,-11357.50
2022-08-17T02:57:44.940Z,-11351.56
2022-08-17T03:00:51.537Z,-11355.78
2022-08-17T03:03:57.888Z,-11357.22
2022-08-17T03:07:04.288Z,-11360.44
2022-08-17T03:10:11.946Z,-11340.44
2022-08-17T03:13:20.190Z,-11322.84
2022-08-17T03:16:26.610Z,-11316.38
2022-08-17T03:19:33.254Z,-11326.22
2022-08-17T03:22:41.876Z,-11329.88
2022-08-17T03:25:55.840Z,-11344.97
2022-08-17T03:29:03.508Z,-11349.75
2022-08-17T03:32:15.004Z,-11355.50
2022-08-17T03:35:28.454Z,-11353.53
2022-08-17T03:38:39.203Z,-11351.56
2022-08-17T03:41:46.293Z,-11342.00
2022-08-17T03:44:56.999Z,-11319.47
2022-08-17T03:48:21.847Z,-11309.59
2022-08-17T03:51:45.591Z,-11307.34
2022-08-17T03:55:09.463Z,-11307.34
2022-08-17T03:58:15.755Z,-11333.84
2022-08-17T04:01:23.538Z,-11338.63
2022-08-17T04:04:29.811Z,-11340.44
2022-08-17T04:07:35.867Z,-11342.97
2022-08-17T04:10:45.139Z,-11332.13
2022-08-17T04:13:51.472Z,-11323.69
2022-08-17T04:16:59.108Z,-11331.84
2022-08-17T04:20:06.850Z,-11326.22
2022-08-17T04:23:15.807Z,-11328.06
2022-08-17T04:26:53.379Z,-11355.66
2022-08-17T04:29:54.665Z,-11362.00
2022-08-17T04:33:08.764Z,-11365.09
2022-08-17T04:36:17.253Z,-11371.84
2022-08-17T04:39:25.151Z,-11368.75
2022-08-17T04:42:30.627Z,-11374.53
2022-08-17T04:45:40.840Z,-11375.81
2022-08-17T04:49:05.639Z,-11381.16
2022-08-17T04:52:12.471Z,-11390.19
2022-08-17T04:55:38.947Z,-11376.94
2022-08-17T04:58:47.818Z,-11376.66
2022-08-17T05:01:54.807Z,-11379.75
2022-08-17T05:05:02.886Z,-11389.34
2022-08-17T05:08:09.564Z,-11389.75
2022-08-17T05:11:16.108Z,-11397.09
2022-08-17T05:14:22.631Z,-11393.41
2022-08-17T05:17:39.464Z,-11399.06
2022-08-17T05:20:47.204Z,-11404.56
2022-08-17T05:23:54.903Z,-11402.16
2022-08-17T05:27:05.052Z,-11417.22
2022-08-17T05:30:14.791Z,-11418.94
2022-08-17T05:33:24.159Z,-11419.50
2022-08-17T05:36:43.580Z,-11420.75
2022-08-17T05:39:51.091Z,-11431.75
2022-08-17T05:43:07.556Z,-11424.16
2022-08-17T05:46:20.427Z,-11440.91
2022-08-17T05:49:29.509Z,-11455.59
2022-08-17T05:52:45.030Z,-11458.13
2022-08-17T05:56:02.850Z,-11467.16
2022-08-17T05:59:17.292Z,-11473.34
2022-08-17T06:02:30.612Z,-11457.28
2022-08-17T06:06:01.417Z,-11465.59
2022-08-17T06:09:26.659Z,-11491.41
2022-08-17T06:12:43.775Z,-11479.97
2022-08-17T06:15:58.313Z,-11488.88
2022-08-17T06:19:12.528Z,-11505.22
2022-08-17T06:22:21.897Z,-11510.44
2022-08-17T06:25:35.395Z,-11508.91
2022-08-17T06:28:52.054Z,-11516.09
2022-08-17T06:31:58.665Z,-11531.47
2022-08-17T06:35:07.604Z,-11526.81
2022-08-17T06:38:37.355Z,-11521.72
2022-08-17T06:41:56.807Z,-11535.97
2022-08-17T06:45:08.015Z,-11548.69
2022-08-17T06:48:24.949Z,-11534.28
2022-08-17T06:51:36.280Z,-11550.66
2022-08-17T06:54:52.398Z,-11558.28
2022-08-17T06:58:11.997Z,-11562.66
2022-08-17T07:01:31.054Z,-11562.38
2022-08-17T07:04:37.911Z,-11577.47
2022-08-17T07:08:03.704Z,-11574.94
2022-08-17T07:11:14.567Z,-11571.97
2022-08-17T07:14:32.083Z,-11586.50
2022-08-17T07:17:47.367Z,-11592.44
2022-08-17T07:20:59.924Z,-11577.75
2022-08-17T07:24:29.380Z,-11593.56
2022-08-17T07:27:40.271Z,-11598.09
2022-08-17T07:30:52.481Z,-11609.94
2022-08-17T07:34:08.466Z,-11600.63
2022-08-17T07:37:20.664Z,-11607.41
2022-08-17T07:40:32.171Z,-11632.69
2022-08-17T07:43:47.222Z,-11612.47
2022-08-17T07:47:13.375Z,-11644.38
2022-08-17T07:50:29.191Z,-11617.56
2022-08-17T07:53:35.797Z,-11634.50
2022-08-17T07:56:46.260Z,-11642.56
2022-08-17T08:00:23.773Z,-11647.22
2022-08-17T08:03:44.506Z,-11658.94
2022-08-17T08:06:54.581Z,-11664.16
2022-08-17T08:10:10.294Z,-11662.03
2022-08-17T08:13:24.559Z,-11664.16
2022-08-17T08:16:30.757Z,-11670.38
2022-08-17T08:19:38.803Z,-11683.22
2022-08-17T08:22:53.503Z,-11679.41
2022-08-17T08:26:18.553Z,-11683.38
2022-08-17T08:29:34.703Z,-11677.16
2022-08-17T08:33:13.601Z,-11683.78
2022-08-17T08:37:14.606Z,-11673.75
2022-08-17T08:40:21.614Z,-11677.44
2022-08-17T08:43:38.242Z,-11688.44
2022-08-17T08:46:54.088Z,-11721.22
2022-08-17T08:50:30.249Z,-11722.63
2022-08-17T08:53:55.173Z,-11699.34
2022-08-17T08:57:28.046Z,-11708.78
2022-08-17T09:00:39.728Z,-11711.19
2022-08-17T09:04:23.440Z,-11728.44
2022-08-17T09:07:41.928Z,-11703.72
2022-08-17T09:10:59.702Z,-11724.47
2022-08-17T09:14:21.736Z,-11735.91
2022-08-17T09:17:40.313Z,-11712.31
2022-08-17T09:20:50.990Z,-11731.81
2022-08-17T09:24:05.557Z,-11722.63
2022-08-17T09:27:18.502Z,-11738.19
2022-08-17T09:30:25.449Z,-11734.09
2022-08-17T09:33:38.900Z,-11723.34
2022-08-17T09:36:52.749Z,-11738.31
2022-08-17T09:40:10.975Z,-11741.28
2022-08-17T09:43:27.262Z,-11726.72
2022-08-17T09:46:39.447Z,-11731.69
2022-08-17T09:49:50.699Z,-11758.81
2022-08-17T09:52:59.807Z,-11763.75
2022-08-17T09:56:19.373Z,-11764.75
2022-08-17T09:59:46.495Z,-11747.50
2022-08-17T10:03:26.369Z,-11780.56
2022-08-17T10:06:39.056Z,-11774.63
2022-08-17T10:09:58.324Z,-11771.66
2022-08-17T10:13:11.391Z,-11772.09
2022-08-17T10:16:26.639Z,-11779.28
2022-08-17T10:19:39.795Z,-11751.75
2022-08-17T10:23:11.820Z,-11756.81
2022-08-17T10:26:24.984Z,-11729.13
2022-08-17T10:29:49.213Z,-11727.72
2022-08-17T10:33:00.677Z,-11725.19
2022-08-17T10:36:13.796Z,-11742.97
2022-08-17T10:39:32.068Z,-11751.19
2022-08-17T10:42:46.975Z,-11755.84
2022-08-17T10:46:26.479Z,-11730.53
2022-08-17T10:49:34.398Z,-11732.66
2022-08-17T10:52:50.202Z,-11756.25
2022-08-17T10:56:38.198Z,-11760.50
2022-08-17T10:59:55.442Z,-11768.84
2022-08-17T11:03:02.045Z,-11783.09
2022-08-17T11:06:21.907Z,-11793.28
2022-08-17T11:09:45.107Z,-11789.31
2022-08-17T11:13:01.506Z,-11776.59
2022-08-17T11:16:39.017Z,-11782.69
2022-08-17T11:20:04.981Z,-11783.41
2022-08-17T11:23:31.790Z,-11777.88
2022-08-17T11:26:42.307Z,-11779.44
2022-08-17T11:29:58.087Z,-11742.97
2022-08-17T11:33:44.510Z,-11783.81
2022-08-17T11:37:27.282Z,-11790.31
2022-08-17T11:40:48.787Z,-11789.59
2022-08-17T11:44:11.784Z,-11769.13
2022-08-17T11:47:56.988Z,-11763.31
2022-08-17T11:51:31.707Z,-11757.09
2022-08-17T11:54:45.305Z,-11763.59
2022-08-17T11:58:03.576Z,-11756.97
2022-08-17T12:01:13.650Z,-11797.22
2022-08-17T12:04:29.134Z,-11796.94
2022-08-17T12:07:43.856Z,-11799.66
2022-08-17T12:10:57.896Z,-11804.16
2022-08-17T12:14:06.365Z,-11786.22
2022-08-17T12:17:20.860Z,-11767.56
2022-08-17T12:20:45.507Z,-11805.28
2022-08-17T12:24:03.391Z,-11808.41
2022-08-17T12:27:13.233Z,-11816.16
2022-08-17T12:30:23.252Z,-11801.91
2022-08-17T12:33:30.253Z,-11814.63
2022-08-17T12:36:36.983Z,-11819.84
2022-08-17T12:39:54.797Z,-11818.28
2022-08-17T12:43:04.008Z,-11811.94
2022-08-17T12:46:31.576Z,-11805.28
2022-08-17T12:49:59.237Z,-11810.53
2022-08-17T12:53:20.631Z,-11809.09
2022-08-17T12:56:42.308Z,-11828.03
2022-08-17T12:59:59.868Z,-11808.25
2022-08-17T13:03:12.561Z,-11830.72
2022-08-17T13:06:30.348Z,-11825.91
2022-08-17T13:09:40.771Z,-11848.97
2022-08-17T13:12:49.637Z,-11838.22
2022-08-17T13:15:58.577Z,-11820.69
2022-08-17T13:19:10.553Z,-11794.13
2022-08-17T13:22:18.442Z,-11817.44
2022-08-17T13:25:25.526Z,-11819.00
2022-08-17T13:28:36.412Z,-11796.09
2022-08-17T13:31:52.704Z,-11774.91
2022-08-17T13:35:47.111Z,-11763.75
2022-08-17T13:39:08.655Z,-11801.75
2022-08-17T13:42:33.444Z,-11796.38
2022-08-17T13:46:10.385Z,-11787.06
2022-08-17T13:49:23.603Z,-11765.59
2022-08-17T13:52:39.506Z,-11760.50
2022-08-17T13:55:51.924Z,-11757.66
2022-08-17T13:59:01.422Z,-11773.63
2022-08-17T14:02:09.960Z,-11779.72
2022-08-17T14:05:16.431Z,-11758.25
2022-08-17T14:08:22.831Z,-11769.81
2022-08-17T14:11:30.722Z,-11790.03
2022-08-17T14:14:36.915Z,-11810.53
2022-08-17T14:17:43.474Z,-11787.34
2022-08-17T14:20:49.723Z,-11764.75
2022-08-17T14:23:56.082Z,-11740.56
2022-08-17T14:27:06.229Z,-11748.91
2022-08-17T14:30:13.650Z,-11733.66
2022-08-17T14:33:22.637Z,-11774.78
2022-08-17T14:36:29.208Z,-11769.25
2022-08-17T14:39:35.431Z,-11765.31
2022-08-17T14:42:45.934Z,-11763.03
2022-08-17T14:45:52.463Z,-11765.88
2022-08-17T14:48:59.768Z,-11783.94
2022-08-17T14:52:06.316Z,-11765.16
2022-08-17T14:55:13.275Z,-11760.91
2022-08-17T14:58:21.237Z,-11746.09
2022-08-17T15:01:28.736Z,-11729.41
2022-08-17T15:04:35.383Z,-11730.53
2022-08-17T15:07:41.762Z,-11746.22
2022-08-17T15:10:54.199Z,-11744.69
2022-08-17T15:14:02.412Z,-11723.47
2022-08-17T15:17:09.179Z,-11726.03
2022-08-17T15:20:17.683Z,-11724.63
2022-08-17T15:23:26.930Z,-11715.56
2022-08-17T15:26:33.203Z,-11716.72
2022-08-17T15:29:41.143Z,-11715.00
2022-08-17T15:32:54.126Z,-11719.94
2022-08-17T15:36:03.386Z,-11727.16
2022-08-17T15:39:09.535Z,-11721.78
2022-08-17T15:42:16.319Z,-11717.41
2022-08-17T15:45:27.047Z,-11709.91
2022-08-17T15:48:43.895Z,-11707.09
2022-08-17T15:51:50.401Z,-11705.41
2022-08-17T15:54:58.833Z,-11693.53
2022-08-17T15:58:07.088Z,-11695.94
2022-08-17T16:01:44.594Z,-11697.34
2022-08-17T16:04:44.545Z,-11697.50
2022-08-17T16:07:53.732Z,-11692.13
2022-08-17T16:11:00.548Z,-11697.50
2022-08-17T16:14:06.563Z,-11699.47
2022-08-17T16:17:49.509Z,-11694.38
2022-08-17T16:20:40.583Z,-11691.56
2022-08-17T16:23:46.946Z,-11688.72
2022-08-17T16:26:55.650Z,-11690.72
2022-08-17T16:30:02.208Z,-11688.59
2022-08-17T16:33:11.798Z,-11684.94
2022-08-17T16:36:18.803Z,-11687.47
2022-08-17T16:39:26.921Z,-11687.31
2022-08-17T16:42:34.920Z,-11687.59
2022-08-17T16:45:42.439Z,-11683.50
2022-08-17T16:48:49.807Z,-11679.97
2022-08-17T16:52:01.784Z,-11670.66
2022-08-17T16:55:10.451Z,-11671.66
2022-08-17T16:58:20.123Z,-11664.03
2022-08-17T17:01:26.680Z,-11663.03
2022-08-17T17:04:37.990Z,-11660.06
2022-08-17T17:08:09.019Z,-11656.25
2022-08-17T17:11:24.841Z,-11653.00
2022-08-17T17:14:37.092Z,-11652.59
2022-08-17T17:17:47.815Z,-11652.03
2022-08-17T17:20:57.575Z,-11649.47
2022-08-17T17:24:09.764Z,-11645.94
2022-08-17T17:27:32.219Z,-11648.78
2022-08-17T17:30:44.698Z,-11644.66
2022-08-17T17:33:54.572Z,-11640.72
2022-08-17T17:37:08.777Z,-11637.63
2022-08-17T17:40:20.638Z,-11636.19
2022-08-17T17:43:44.597Z,-11633.94
2022-08-17T17:46:56.154Z,-11624.91
2022-08-17T17:50:05.688Z,-11621.81
2022-08-17T17:53:35.277Z,-11613.91
2022-08-17T17:56:55.784Z,-11606.00
2022-08-17T18:00:09.135Z,-11608.25
2022-08-17T18:03:36.845Z,-11605.13
2022-08-17T18:06:50.552Z,-11591.59
2022-08-17T18:10:19.542Z,-11593.56
2022-08-17T18:13:56.420Z,-11591.88
2022-08-17T18:17:02.961Z,-11587.22
2022-08-17T18:20:09.780Z,-11582.84
2022-08-17T18:23:15.983Z,-11581.00
2022-08-17T18:26:48.307Z,-11576.63
2022-08-17T18:29:57.388Z,-11566.19
2022-08-17T18:33:24.402Z,-11574.09
2022-08-17T18:36:33.498Z,-11573.53
2022-08-17T18:39:40.099Z,-11567.88
2022-08-17T18:42:59.737Z,-11572.41
2022-08-17T18:46:28.980Z,-11569.72
2022-08-17T18:49:37.844Z,-11561.81
2022-08-17T18:52:44.370Z,-11555.03
2022-08-17T18:55:50.657Z,-11551.78
2022-08-17T18:59:19.895Z,-11553.47
2022-08-17T19:02:44.700Z,-11558.69
2022-08-17T19:05:53.336Z,-11549.81
2022-08-17T19:09:01.355Z,-11536.28
2022-08-17T19:12:11.702Z,-11533.72
2022-08-17T19:15:31.485Z,-11529.50
2022-08-17T19:18:40.708Z,-11531.59
2022-08-17T19:21:53.355Z,-11526.53
2022-08-17T19:25:12.138Z,-11526.13
2022-08-17T19:28:25.008Z,-11519.06
2022-08-17T19:31:33.032Z,-11517.63
2022-08-17T19:34:44.695Z,-11519.06
2022-08-17T19:38:04.416Z,-11519.91
2022-08-17T19:41:20.566Z,-11518.34
2022-08-17T19:44:50.560Z,-11513.41
2022-08-17T19:48:10.057Z,-11516.78
2022-08-17T19:51:21.294Z,-11508.34
2022-08-17T19:54:34.415Z,-11503.97
2022-08-17T19:57:50.623Z,-11501.56
2022-08-17T20:00:57.213Z,-11495.34
2022-08-17T20:04:12.072Z,-11494.66
2022-08-17T20:07:28.504Z,-11490.28
2022-08-17T20:10:47.261Z,-11480.53
2022-08-17T20:14:05.255Z,-11480.41
2022-08-17T20:17:13.568Z,-11476.75
2022-08-17T20:20:29.754Z,-11471.53
2022-08-17T20:23:46.493Z,-11473.63
2022-08-17T20:26:58.910Z,-11479.97
2022-08-17T20:30:12.385Z,-11473.50
2022-08-17T20:33:28.456Z,-11471.81
2022-08-17T20:36:37.022Z,-11474.47
2022-08-17T20:39:46.324Z,-11454.19
2022-08-17T20:42:52.679Z,-11467.44
2022-08-17T20:46:10.869Z,-11456.16
2022-08-17T20:49:27.156Z,-11456.16
2022-08-17T20:52:50.926Z,-11457.69
2022-08-17T20:55:57.523Z,-11457.28
2022-08-17T20:59:03.691Z,-11461.22
2022-08-17T21:02:18.350Z,-11461.09
2022-08-17T21:05:32.406Z,-11458.53
2022-08-17T21:08:53.943Z,-11453.19
2022-08-17T21:12:05.475Z,-11448.38
2022-08-17T21:15:31.665Z,-11441.34
2022-08-17T21:18:48.055Z,-11429.94
2022-08-17T21:22:07.527Z,-11436.97
2022-08-17T21:25:29.732Z,-11423.88
2022-08-17T21:29:00.370Z,-11423.16
2022-08-17T21:32:24.650Z,-11420.91
2022-08-17T21:35:48.725Z,-11430.22
2022-08-17T21:39:03.245Z,-11433.59
2022-08-17T21:42:14.047Z,-11435.97
2022-08-17T21:45:25.560Z,-11438.38
2022-08-17T21:48:41.634Z,-11432.31
2022-08-17T21:51:50.484Z,-11436.69
2022-08-17T21:55:00.399Z,-11443.31
2022-08-17T21:58:23.524Z,-11434.72
2022-08-17T22:01:34.474Z,-11412.44
2022-08-17T22:04:42.846Z,-11413.72
2022-08-17T22:07:51.920Z,-11411.75
2022-08-17T22:11:03.186Z,-11413.28
2022-08-17T22:14:20.270Z,-11415.41
2022-08-17T22:17:29.048Z,-11408.78
2022-08-17T22:20:36.254Z,-11418.09
2022-08-17T22:24:02.190Z,-11425.41
2022-08-17T22:27:11.783Z,-11428.81
2022-08-17T22:30:27.682Z,-11425.84
2022-08-17T22:33:40.957Z,-11415.69
2022-08-17T22:36:47.308Z,-11405.41
2022-08-17T22:40:00.883Z,-11423.16
2022-08-17T22:43:12.929Z,-11415.81
2022-08-17T22:46:22.553Z,-11417.66
2022-08-17T22:49:35.381Z,-11410.75
2022-08-17T22:52:58.964Z,-11410.47
2022-08-17T22:56:23.595Z,-11422.03
2022-08-17T22:59:50.864Z,-11421.31
2022-08-17T23:03:12.712Z,-11407.50
2022-08-17T23:06:18.918Z,-11389.34
2022-08-17T23:09:25.406Z,-11384.81
2022-08-17T23:12:32.425Z,-11387.34
2022-08-17T23:15:40.168Z,-11397.78
2022-08-17T23:18:50.932Z,-11392.44
2022-08-17T23:21:59.006Z,-11386.78
2022-08-17T23:25:06.379Z,-11380.88
2022-08-17T23:28:12.881Z,-11380.59
2022-08-17T23:31:21.197Z,-11380.59
2022-08-17T23:34:33.660Z,-11381.31
2022-08-17T23:37:41.570Z,-11382.16
2022-08-17T23:40:48.347Z,-11394.69
2022-08-17T23:43:55.290Z,-11401.44
2022-08-17T23:47:04.742Z,-11399.75
2022-08-17T23:50:12.820Z,-11400.59
2022-08-17T23:53:19.253Z,-11400.88
2022-08-17T23:56:26.198Z,-11399.75
2022-08-17T23:59:33.969Z,-11401.44
